Time;durP1;ratioP1;P1;durP2;ratioP2;P2;SDS_P1;SDS_P2;PMS_P1;PMS_P2;Temp;Humidity;BMP_temperature;BMP_pressure;BME280_temperature;BME280_humidity;BME280_pressure;Samples;Min_cycle;Max_cycle;Signal;HPM_P1;HPM_P2
2022/11/15 00:02:35;;;;;;;10.63;9.52;;;22.10;98.20;;;;;;6255816;27;94464;-67
2022/11/15 00:05:38;;;;;;;10.80;9.60;;;22.10;98.20;;;;;;6255282;28;94264;-68
2022/11/15 00:08:40;;;;;;;10.18;9.18;;;22.10;98.20;;;;;;6255198;28;94284;-68
2022/11/15 00:11:43;;;;;;;10.20;9.20;;;22.10;98.20;;;;;;6254855;28;95136;-68
2022/11/15 00:14:45;;;;;;;10.00;9.00;;;22.10;98.20;;;;;;6254004;28;94126;-68
2022/11/15 00:17:50;;;;;;;10.73;9.60;;;22.10;98.20;;;;;;6254727;28;94247;-67
2022/11/15 00:20:53;;;;;;;10.98;9.80;;;22.10;98.20;;;;;;6254808;28;94150;-68
2022/11/15 00:23:56;;;;;;;10.40;9.40;;;22.10;98.20;;;;;;6256568;27;94240;-68
2022/11/15 00:26:58;;;;;;;10.18;9.18;;;22.00;98.20;;;;;;6254798;28;93455;-68
2022/11/15 00:30:00;;;;;;;10.00;9.02;;;22.10;98.60;;;;;;6253765;28;94447;-68
2022/11/15 00:33:04;;;;;;;10.32;9.30;;;22.10;98.20;;;;;;6253839;28;94231;-68
2022/11/15 00:36:10;;;;;;;10.68;9.57;;;22.00;98.10;;;;;;6255173;28;95410;-67
2022/11/15 00:39:12;;;;;;;10.05;9.13;;;22.00;98.10;;;;;;6250551;28;95646;-67
2022/11/15 00:42:14;;;;;;;10.05;9.07;;;22.00;98.20;;;;;;6255182;28;94324;-67
2022/11/15 00:45:17;;;;;;;10.27;9.27;;;22.00;98.20;;;;;;6255460;28;94466;-68
2022/11/15 00:48:19;;;;;;;10.10;9.10;;;22.00;98.20;;;;;;6255594;28;94160;-68
2022/11/15 00:51:22;;;;;;;9.77;8.88;;;22.00;98.10;;;;;;6253997;28;94778;-68
2022/11/15 00:54:24;;;;;;;9.95;8.95;;;22.00;98.10;;;;;;6253620;28;94218;-68
2022/11/15 00:57:27;;;;;;;10.23;9.23;;;22.00;98.10;;;;;;6255880;28;93512;-68
2022/11/15 01:00:29;;;;;;;9.65;8.75;;;22.00;98.10;;;;;;6254892;28;94199;-68
2022/11/15 01:03:33;;;;;;;9.68;8.77;;;22.00;98.00;;;;;;6253732;28;94199;-67
2022/11/15 01:06:37;;;;;;;9.98;8.98;;;22.00;98.00;;;;;;6253492;28;95359;-67
2022/11/15 01:09:39;;;;;;;9.60;8.70;;;22.00;98.00;;;;;;6253622;28;94038;-68
2022/11/15 01:12:41;;;;;;;9.20;8.30;;;22.00;98.00;;;;;;6253941;27;94245;-68
2022/11/15 01:15:43;;;;;;;9.80;8.90;;;22.00;98.00;;;;;;6249465;28;95050;-67
2022/11/15 01:18:46;;;;;;;9.57;8.68;;;22.00;98.00;;;;;;6253735;28;94371;-68
2022/11/15 01:21:51;;;;;;;9.63;8.73;;;21.90;98.00;;;;;;6246316;28;94527;-67
2022/11/15 01:24:53;;;;;;;9.45;8.55;;;21.90;98.00;;;;;;6261480;27;94381;-67
2022/11/15 01:27:55;;;;;;;9.27;8.38;;;21.90;98.00;;;;;;6255563;28;93448;-67
2022/11/15 01:30:59;;;;;;;10.10;8.90;;;21.90;98.00;;;;;;6252259;28;94323;-67
2022/11/15 01:34:01;;;;;;;9.65;8.75;;;21.90;98.00;;;;;;6252592;28;94180;-67
2022/11/15 01:37:04;;;;;;;10.00;9.00;;;21.90;98.00;;;;;;6253427;28;95563;-67
2022/11/15 01:40:07;;;;;;;9.68;8.77;;;21.90;98.00;;;;;;6253645;28;94293;-67
2022/11/15 01:43:23;;;;;;;9.45;8.55;;;21.90;97.90;;;;;;6254445;28;94216;-67
2022/11/15 01:46:31;;;;;;;9.38;8.48;;;21.90;98.00;;;;;;6253585;28;94028;-67
2022/11/15 01:49:36;;;;;;;8.77;7.93;;;21.90;98.00;;;;;;6253049;28;94320;-68
2022/11/15 01:52:41;;;;;;;8.88;7.97;;;21.80;97.90;;;;;;6253269;28;94352;-67
2022/11/15 01:55:43;;;;;;;8.73;7.93;;;21.90;98.00;;;;;;6253539;28;94195;-67
2022/11/15 01:58:46;;;;;;;9.52;8.27;;;21.80;97.90;;;;;;6252836;28;93446;-67
2022/11/15 02:01:48;;;;;;;8.60;7.80;;;21.90;98.00;;;;;;6252878;28;94119;-67
2022/11/15 02:04:50;;;;;;;8.85;7.95;;;21.80;98.00;;;;;;6253643;28;94176;-67
2022/11/15 02:07:55;;;;;;;9.15;8.25;;;21.80;98.00;;;;;;6252362;28;95213;-67
2022/11/15 02:10:57;;;;;;;8.90;8.10;;;21.80;97.90;;;;;;6252400;28;94438;-67
2022/11/15 02:14:00;;;;;;;8.48;7.72;;;21.80;97.90;;;;;;6253072;28;94369;-67
2022/11/15 02:17:17;;;;;;;8.30;7.50;;;21.80;97.80;;;;;;6253196;28;94617;-67
2022/11/15 02:20:40;;;;;;;8.88;7.97;;;21.80;97.90;;;;;;6253404;28;94283;-67
2022/11/15 02:24:39;;;;;;;8.68;7.85;;;21.80;97.80;;;;;;6251708;27;94396;-67
2022/11/15 02:28:03;;;;;;;8.35;7.55;;;21.80;97.80;;;;;;6232325;28;94478;-67
2022/11/15 02:31:14;;;;;;;8.70;7.85;;;21.80;97.80;;;;;;6243070;28;93572;-67
2022/11/15 02:34:27;;;;;;;8.38;7.57;;;21.80;97.90;;;;;;6241754;28;94189;-67
2022/11/15 02:37:40;;;;;;;8.25;7.45;;;21.80;97.90;;;;;;6253626;28;94324;-67
2022/11/15 02:40:52;;;;;;;8.23;7.43;;;21.80;97.80;;;;;;6251253;28;95136;-68
2022/11/15 02:43:59;;;;;;;7.80;7.10;;;21.70;98.00;;;;;;6250846;28;94066;-67
2022/11/15 02:47:16;;;;;;;8.00;7.28;;;21.70;98.00;;;;;;6243953;28;94291;-67
2022/11/15 02:50:22;;;;;;;7.68;6.97;;;21.70;97.90;;;;;;6243602;28;94393;-67
2022/11/15 02:53:26;;;;;;;8.25;7.40;;;21.70;97.80;;;;;;6243583;28;93989;-68
2022/11/15 02:56:28;;;;;;;7.38;6.68;;;21.70;97.80;;;;;;6252243;28;94058;-68
2022/11/15 02:59:45;;;;;;;8.13;7.43;;;21.70;97.90;;;;;;6250818;27;94280;-68
2022/11/15 03:03:04;;;;;;;7.45;6.75;;;21.70;97.90;;;;;;6253489;27;93357;-67
2022/11/15 03:06:20;;;;;;;7.93;7.13;;;21.70;97.90;;;;;;6252211;28;94391;-67
2022/11/15 03:09:31;;;;;;;7.90;7.20;;;21.70;97.80;;;;;;6251365;28;94348;-68
2022/11/15 03:12:39;;;;;;;8.30;7.50;;;21.70;97.80;;;;;;6250624;28;95428;-68
2022/11/15 03:15:47;;;;;;;7.90;7.10;;;21.70;97.90;;;;;;6251048;28;94204;-67
2022/11/15 03:18:55;;;;;;;7.68;6.88;;;21.70;97.90;;;;;;6251540;28;94483;-68
2022/11/15 03:21:58;;;;;;;7.70;7.00;;;21.70;97.90;;;;;;6248295;28;94025;-68
2022/11/15 03:25:05;;;;;;;7.53;6.82;;;21.70;97.90;;;;;;6252083;27;94187;-68
2022/11/15 03:28:10;;;;;;;7.25;6.57;;;21.70;97.80;;;;;;6251584;28;94497;-67
2022/11/15 03:34:40;;;;;;;7.32;6.60;;;21.70;97.80;;;;;;6251228;28;91269;-68
2022/11/15 03:37:47;;;;;;;7.07;6.38;;;21.70;97.70;;;;;;6251101;27;92743;-68
2022/11/15 03:40:55;;;;;;;7.45;6.72;;;21.70;97.70;;;;;;6250594;28;94111;-68
2022/11/15 03:44:05;;;;;;;8.15;7.35;;;21.70;97.70;;;;;;6249853;27;93999;-68
2022/11/15 03:47:11;;;;;;;7.18;6.47;;;21.60;97.80;;;;;;6250489;27;94822;-68
2022/11/15 03:50:17;;;;;;;6.93;6.32;;;21.60;97.70;;;;;;6251357;28;94486;-68
2022/11/15 03:53:19;;;;;;;6.68;6.07;;;21.60;97.70;;;;;;6252349;28;94635;-68
2022/11/15 03:56:21;;;;;;;6.53;5.93;;;21.60;97.70;;;;;;6250285;28;94505;-67
2022/11/15 03:59:23;;;;;;;7.20;6.50;;;21.60;97.80;;;;;;6249911;28;94188;-68
2022/11/15 04:02:25;;;;;;;7.28;6.47;;;21.60;97.80;;;;;;6251838;28;94429;-68
2022/11/15 04:05:28;;;;;;;7.00;6.30;;;21.60;97.80;;;;;;6251581;28;93416;-68
2022/11/15 04:08:30;;;;;;;7.10;6.43;;;21.60;97.70;;;;;;6252641;28;94231;-68
2022/11/15 04:11:32;;;;;;;7.13;6.53;;;21.60;97.70;;;;;;6249475;28;93124;-68
2022/11/15 04:14:34;;;;;;;6.30;5.70;;;21.60;97.60;;;;;;6249180;28;95214;-67
2022/11/15 04:17:41;;;;;;;6.57;5.97;;;21.60;97.60;;;;;;6249655;28;94297;-68
2022/11/15 04:24:13;;;;;;;6.57;5.97;;;21.60;97.60;;;;;;6253850;27;92520;-67
2022/11/15 04:27:15;;;;;;;6.22;5.63;;;21.60;97.50;;;;;;6256277;27;94083;-67
2022/11/15 04:30:17;;;;;;;7.13;6.20;;;21.60;97.50;;;;;;6250279;28;94116;-67
2022/11/15 04:33:20;;;;;;;6.32;5.80;;;21.50;97.40;;;;;;6249965;28;94396;-68
2022/11/15 04:39:44;;;;;;;6.00;5.50;;;21.60;97.40;;;;;;6246617;28;93566;-67
2022/11/15 04:42:46;;;;;;;5.88;5.38;;;21.60;97.40;;;;;;6249732;28;93097;-67
2022/11/15 04:45:48;;;;;;;6.32;5.72;;;21.60;97.30;;;;;;6250126;28;95228;-67
2022/11/15 04:48:50;;;;;;;6.57;5.97;;;21.60;97.20;;;;;;6252299;27;95210;-67
2022/11/15 04:51:53;;;;;;;5.90;5.40;;;21.70;97.20;;;;;;6254865;28;94283;-67
2022/11/15 04:54:55;;;;;;;5.90;5.40;;;21.70;97.10;;;;;;6254813;28;94161;-67
2022/11/15 04:58:01;;;;;;;6.38;5.80;;;21.70;97.00;;;;;;6255180;28;94207;-67
2022/11/15 05:01:08;;;;;;;7.10;5.85;;;21.70;97.00;;;;;;6253471;27;94224;-67
2022/11/15 05:04:22;;;;;;;5.95;5.45;;;21.70;96.90;;;;;;6254537;27;94174;-67
2022/11/15 05:07:25;;;;;;;6.10;5.50;;;21.70;96.90;;;;;;6245874;28;93380;-67
2022/11/15 05:10:27;;;;;;;6.07;5.57;;;21.80;96.90;;;;;;6253328;28;94439;-67
2022/11/15 05:13:29;;;;;;;5.53;5.03;;;21.80;96.80;;;;;;6242434;28;99241;-68
2022/11/15 05:16:31;;;;;;;5.85;5.35;;;21.80;96.80;;;;;;6254177;28;95206;-67
2022/11/15 05:19:34;;;;;;;5.03;4.63;;;21.80;96.80;;;;;;6255164;28;94158;-68
2022/11/15 05:22:37;;;;;;;5.50;5.00;;;21.80;96.70;;;;;;6254786;27;96708;-67
2022/11/15 05:25:40;;;;;;;6.07;5.40;;;21.80;96.70;;;;;;6255734;27;94224;-68
2022/11/15 05:28:42;;;;;;;6.03;5.43;;;21.80;96.70;;;;;;6255076;28;94098;-68
2022/11/15 05:31:44;;;;;;;5.85;5.32;;;21.80;96.60;;;;;;6254570;28;94122;-67
2022/11/15 05:34:47;;;;;;;5.38;4.88;;;21.90;96.60;;;;;;6255052;28;94259;-68
2022/11/15 05:37:50;;;;;;;5.38;4.88;;;21.90;96.50;;;;;;6254821;28;93437;-67
2022/11/15 05:40:53;;;;;;;5.70;5.20;;;21.90;96.50;;;;;;6253738;28;94203;-68
2022/11/15 05:43:55;;;;;;;5.60;5.10;;;21.90;96.50;;;;;;6254824;28;94216;-67
2022/11/15 05:46:58;;;;;;;5.25;4.85;;;21.90;96.40;;;;;;6253966;28;95128;-67
2022/11/15 05:50:00;;;;;;;5.45;4.95;;;21.90;96.40;;;;;;6254384;28;94205;-68
2022/11/15 05:53:04;;;;;;;5.78;5.15;;;21.90;96.40;;;;;;6253354;27;94278;-67
2022/11/15 05:56:07;;;;;;;6.22;5.57;;;21.90;96.30;;;;;;6251967;27;93051;-68
2022/11/15 05:59:10;;;;;;;5.57;5.07;;;21.90;96.30;;;;;;6242683;27;94161;-68
2022/11/15 06:02:12;;;;;;;5.60;5.10;;;21.90;96.30;;;;;;6252495;27;94404;-67
2022/11/15 06:05:14;;;;;;;5.40;4.90;;;21.90;96.20;;;;;;6253712;27;96433;-67
2022/11/15 06:08:18;;;;;;;5.60;5.10;;;21.90;96.20;;;;;;6252094;28;93713;-67
2022/11/15 06:11:20;;;;;;;5.45;4.97;;;21.90;96.20;;;;;;6253699;28;94265;-67
2022/11/15 06:14:22;;;;;;;5.10;4.70;;;22.00;96.20;;;;;;6253340;28;93177;-67
2022/11/15 06:17:24;;;;;;;5.60;5.10;;;22.00;96.10;;;;;;6252334;28;95142;-67
2022/11/15 06:20:26;;;;;;;5.57;5.07;;;22.00;96.10;;;;;;6253014;28;94674;-68
2022/11/15 06:23:33;;;;;;;5.07;4.68;;;22.00;96.00;;;;;;6254270;28;94225;-67
2022/11/15 06:26:35;;;;;;;5.05;4.65;;;22.00;96.00;;;;;;6253723;27;94437;-67
2022/11/15 06:29:37;;;;;;;5.25;4.85;;;22.00;96.00;;;;;;6252946;28;94062;-67
2022/11/15 06:32:39;;;;;;;5.72;5.22;;;22.00;96.00;;;;;;6253572;28;94252;-67
2022/11/15 06:35:41;;;;;;;5.97;5.22;;;22.00;96.00;;;;;;6245571;28;94495;-67
2022/11/15 06:42:53;;;;;;;5.65;5.15;;;22.00;92.90;;;;;;6247311;28;92525;-67
2022/11/15 06:45:55;;;;;;;5.95;5.07;;;22.00;92.70;;;;;;6247728;28;93007;-67
2022/11/15 06:48:57;;;;;;;5.25;4.80;;;22.00;92.60;;;;;;6250912;28;95178;-67
2022/11/15 06:51:59;;;;;;;5.50;5.00;;;22.00;92.50;;;;;;6252763;28;94147;-67
2022/11/15 06:55:01;;;;;;;4.95;4.55;;;22.10;92.50;;;;;;6250514;27;94275;-66
2022/11/15 06:58:05;;;;;;;5.47;4.95;;;22.00;92.60;;;;;;6253695;27;94244;-67
2022/11/15 07:01:08;;;;;;;4.93;4.30;;;22.00;92.90;;;;;;6245200;28;94284;-67
2022/11/15 07:04:10;;;;;;;6.25;5.07;;;22.00;93.40;;;;;;6252900;28;94271;-70
2022/11/15 07:07:12;;;;;;;5.40;4.68;;;22.10;94.00;;;;;;6247026;28;94045;-68
2022/11/15 07:10:15;;;;;;;5.05;4.65;;;22.10;94.10;;;;;;6243236;28;93467;-71
2022/11/15 07:13:19;;;;;;;4.70;4.30;;;22.10;94.40;;;;;;6241203;28;93965;-69
2022/11/15 07:16:21;;;;;;;5.75;4.97;;;22.10;94.50;;;;;;6245730;28;94563;-71
2022/11/15 07:19:24;;;;;;;4.95;4.45;;;22.10;95.00;;;;;;6240884;28;93614;-71
2022/11/15 07:22:26;;;;;;;5.18;4.70;;;22.20;94.60;;;;;;6245471;28;94291;-71
2022/11/15 07:25:28;;;;;;;5.63;5.00;;;22.20;94.60;;;;;;6251305;27;94261;-71
2022/11/15 07:28:32;;;;;;;5.13;4.63;;;22.20;94.70;;;;;;6250717;28;94708;-71
2022/11/15 07:31:33;;;;;;;4.63;4.22;;;22.20;94.70;;;;;;6251313;28;94201;-72
2022/11/15 07:34:35;;;;;;;4.88;4.43;;;22.20;94.80;;;;;;6252116;28;94275;-72
2022/11/15 07:37:37;;;;;;;5.38;4.90;;;22.20;94.80;;;;;;6252246;28;94607;-72
2022/11/15 07:40:39;;;;;;;4.93;4.43;;;22.20;94.80;;;;;;6252321;28;93544;-72
2022/11/15 07:43:43;;;;;;;5.10;4.60;;;22.20;94.80;;;;;;6248162;28;94113;-72
2022/11/15 07:46:45;;;;;;;5.10;4.60;;;22.20;94.80;;;;;;6251273;28;94147;-72
2022/11/15 07:49:47;;;;;;;4.68;4.28;;;22.30;94.80;;;;;;6249138;28;95191;-71
2022/11/15 07:52:54;;;;;;;6.93;4.85;;;22.20;94.80;;;;;;6248425;28;94101;-72
2022/11/15 07:55:56;;;;;;;5.28;4.70;;;22.20;94.80;;;;;;6251405;28;94478;-72
2022/11/15 07:59:00;;;;;;;4.65;4.22;;;22.30;94.90;;;;;;6251842;28;94262;-72
2022/11/15 08:02:03;;;;;;;4.80;4.40;;;22.30;95.30;;;;;;6250785;28;94140;-72
2022/11/15 08:05:07;;;;;;;4.80;4.40;;;22.30;94.90;;;;;;6251723;28;94534;-73
2022/11/15 08:08:11;;;;;;;5.15;4.68;;;22.30;94.90;;;;;;6251118;28;94265;-72
2022/11/15 08:11:13;;;;;;;4.45;4.05;;;22.30;95.00;;;;;;6252748;28;93685;-72
2022/11/15 08:14:16;;;;;;;5.18;4.68;;;22.30;95.00;;;;;;6251631;28;93339;-71
2022/11/15 08:17:18;;;;;;;4.78;4.20;;;22.30;95.00;;;;;;6251073;28;94103;-72
2022/11/15 08:20:20;;;;;;;4.88;4.47;;;22.30;95.10;;;;;;6251393;28;95124;-73
2022/11/15 08:23:22;;;;;;;4.88;4.22;;;22.30;95.10;;;;;;6239189;27;94169;-72
2022/11/15 08:26:28;;;;;;;7.03;4.68;;;22.30;95.20;;;;;;6255307;27;94286;-73
2022/11/15 08:29:32;;;;;;;6.80;4.88;;;22.30;95.20;;;;;;6248065;28;94201;-72
2022/11/15 08:32:34;;;;;;;5.32;4.30;;;22.30;95.20;;;;;;6253518;27;94205;-72
2022/11/15 08:35:36;;;;;;;5.68;4.40;;;22.30;95.20;;;;;;6254946;27;93104;-73
2022/11/15 08:38:38;;;;;;;8.55;4.60;;;22.30;95.30;;;;;;6250432;27;94271;-72
2022/11/15 08:41:40;;;;;;;6.47;5.07;;;22.20;95.30;;;;;;6249312;27;92423;-73
2022/11/15 08:44:44;;;;;;;5.47;4.78;;;22.20;95.30;;;;;;6255593;27;93072;-73
2022/11/15 08:47:46;;;;;;;5.18;4.68;;;22.20;95.30;;;;;;6251949;27;93364;-73
2022/11/15 08:50:48;;;;;;;4.82;4.43;;;22.30;95.30;;;;;;6253225;27;95148;-73
2022/11/15 08:53:50;;;;;;;6.22;4.20;;;22.30;95.40;;;;;;6256048;27;94302;-72
2022/11/15 08:56:52;;;;;;;5.05;4.55;;;22.20;95.40;;;;;;6254928;27;94405;-73
2022/11/15 08:59:55;;;;;;;4.68;4.18;;;22.30;95.40;;;;;;6255446;27;94618;-72
2022/11/15 09:02:57;;;;;;;5.20;4.50;;;22.20;95.40;;;;;;6255220;27;94295;-73
2022/11/15 09:06:00;;;;;;;4.88;4.22;;;22.20;95.50;;;;;;6255145;27;94066;-73
2022/11/15 09:09:03;;;;;;;4.70;4.30;;;22.20;95.50;;;;;;6256136;27;93095;-73
2022/11/15 09:12:06;;;;;;;5.50;4.25;;;22.20;95.50;;;;;;6256741;28;93327;-73
2022/11/15 09:15:10;;;;;;;4.85;4.32;;;22.20;95.50;;;;;;6255307;27;94220;-72
2022/11/15 09:18:12;;;;;;;5.10;4.40;;;22.20;95.50;;;;;;6243237;27;94552;-73
2022/11/15 09:21:15;;;;;;;5.22;4.70;;;22.30;95.60;;;;;;6255260;27;95225;-74
2022/11/15 09:24:17;;;;;;;5.13;4.57;;;22.30;95.20;;;;;;6252740;27;94248;-72
2022/11/15 09:27:19;;;;;;;5.05;4.55;;;22.30;95.00;;;;;;6253156;27;94505;-73
2022/11/15 09:30:23;;;;;;;5.25;4.75;;;22.30;95.00;;;;;;6253287;27;94565;-72
2022/11/15 09:33:25;;;;;;;5.72;4.82;;;22.30;95.00;;;;;;6253148;27;94370;-73
2022/11/15 09:36:27;;;;;;;5.50;5.00;;;22.30;95.00;;;;;;6255047;27;94348;-73
2022/11/15 09:39:29;;;;;;;4.78;4.38;;;22.30;95.00;;;;;;6255026;27;94258;-72
2022/11/15 09:42:49;;;;;;;4.65;4.18;;;22.30;95.00;;;;;;6254451;27;92275;-73
2022/11/15 09:46:02;;;;;;;5.15;4.65;;;22.30;95.00;;;;;;6253684;27;94268;-72
2022/11/15 09:49:05;;;;;;;4.82;4.43;;;22.30;95.10;;;;;;6250735;27;93146;-73
2022/11/15 09:52:09;;;;;;;4.85;4.45;;;22.30;95.10;;;;;;6250736;28;94076;-72
2022/11/15 09:55:14;;;;;;;4.55;4.13;;;22.40;95.10;;;;;;6254400;27;94209;-72
2022/11/15 09:58:25;;;;;;;4.65;4.25;;;22.40;95.10;;;;;;6253796;27;94207;-73
2022/11/15 10:01:40;;;;;;;4.72;4.32;;;22.40;95.10;;;;;;6254222;27;94214;-73
2022/11/15 10:04:43;;;;;;;4.60;4.20;;;22.30;95.00;;;;;;6252110;27;94188;-73
2022/11/15 10:07:51;;;;;;;5.18;4.57;;;22.40;95.00;;;;;;6252847;27;94274;-72
2022/11/15 10:10:57;;;;;;;5.18;4.68;;;22.40;95.00;;;;;;6253318;27;94199;-72
2022/11/15 10:14:03;;;;;;;4.75;4.32;;;22.40;95.00;;;;;;6254560;27;93727;-73
2022/11/15 10:17:34;;;;;;;4.90;4.50;;;22.40;95.00;;;;;;6254242;27;94222;-72
2022/11/15 10:20:47;;;;;;;4.85;4.30;;;22.40;95.00;;;;;;6243425;27;94219;-74
2022/11/15 10:23:49;;;;;;;4.93;4.38;;;22.40;95.00;;;;;;6252141;27;95309;-73
2022/11/15 10:26:51;;;;;;;5.18;4.50;;;22.40;95.10;;;;;;6253941;27;94334;-73
2022/11/15 10:29:53;;;;;;;4.40;4.03;;;22.40;95.10;;;;;;6252506;27;94171;-72
2022/11/15 10:32:56;;;;;;;4.40;4.10;;;22.40;95.10;;;;;;6252995;28;94319;-72
2022/11/15 10:36:19;;;;;;;4.95;4.35;;;22.40;95.20;;;;;;6252359;27;94289;-73
2022/11/15 10:39:21;;;;;;;4.85;4.45;;;22.40;95.20;;;;;;6253074;27;94091;-73
2022/11/15 10:42:27;;;;;;;6.03;4.85;;;22.50;95.20;;;;;;6252379;27;94181;-71
2022/11/15 10:45:32;;;;;;;4.85;4.45;;;22.40;95.40;;;;;;6252062;27;93681;-73
2022/11/15 10:48:36;;;;;;;4.53;4.13;;;22.50;95.40;;;;;;6253707;27;93095;-73
2022/11/15 10:51:45;;;;;;;5.10;4.10;;;22.40;95.40;;;;;;6251435;27;94097;-74
2022/11/15 10:54:49;;;;;;;4.95;4.45;;;22.40;95.50;;;;;;6247802;27;96476;-73
2022/11/15 10:57:54;;;;;;;4.80;4.35;;;22.40;95.60;;;;;;6250406;27;94317;-73
2022/11/15 11:00:56;;;;;;;4.75;4.30;;;22.50;95.70;;;;;;6233323;27;94701;-73
2022/11/15 11:04:04;;;;;;;4.50;4.10;;;22.40;95.80;;;;;;6253264;28;94095;-73
2022/11/15 11:07:22;;;;;;;4.60;4.20;;;22.40;95.80;;;;;;6250370;27;94489;-69
2022/11/15 11:10:24;;;;;;;4.57;4.18;;;22.50;96.00;;;;;;6252730;28;94399;-72
2022/11/15 11:13:29;;;;;;;4.40;3.97;;;22.50;96.30;;;;;;6252494;28;94190;-74
2022/11/15 11:16:43;;;;;;;4.28;3.97;;;22.50;96.50;;;;;;6253209;28;92133;-71
2022/11/15 11:20:01;;;;;;;6.90;4.60;;;22.50;96.70;;;;;;6251233;28;92976;-72
2022/11/15 11:23:18;;;;;;;4.45;4.05;;;22.60;99.70;;;;;;6245879;28;94347;-72
2022/11/15 11:26:38;;;;;;;6.03;5.15;;;22.60;98.00;;;;;;6247089;27;95248;-72
2022/11/15 11:29:51;;;;;;;6.05;5.45;;;22.60;99.90;;;;;;6235971;27;94339;-71
2022/11/15 11:33:14;;;;;;;6.20;5.30;;;22.70;99.90;;;;;;6252255;28;94059;-72
2022/11/15 11:36:26;;;;;;;6.00;5.40;;;22.80;99.90;;;;;;6239937;27;94217;-72
2022/11/15 11:39:37;;;;;;;7.18;5.00;;;22.90;99.20;;;;;;6242455;27;94029;-71
2022/11/15 11:42:48;;;;;;;5.50;5.00;;;23.20;97.90;;;;;;6244983;27;94620;-71
2022/11/15 11:46:11;;;;;;;5.30;4.90;;;23.50;96.50;;;;;;6240316;27;94432;-71
2022/11/15 11:49:19;;;;;;;5.20;4.80;;;23.60;95.60;;;;;;6251477;27;94036;-71
2022/11/15 11:52:29;;;;;;;4.90;4.50;;;23.70;95.20;;;;;;6247460;28;94932;-73
2022/11/15 11:55:36;;;;;;;5.57;4.93;;;23.70;94.80;;;;;;6249012;27;94679;-72
2022/11/15 11:58:42;;;;;;;5.20;4.68;;;23.70;95.10;;;;;;6247300;28;95081;-72
2022/11/15 12:01:45;;;;;;;8.50;7.70;;;23.60;94.90;;;;;;6253191;27;94297;-72
2022/11/15 12:04:52;;;;;;;10.10;9.18;;;23.40;90.60;;;;;;6251320;27;94236;-74
2022/11/15 12:08:02;;;;;;;9.65;8.75;;;23.30;81.60;;;;;;6251639;28;94415;-73
2022/11/15 12:11:13;;;;;;;8.65;7.85;;;23.00;80.20;;;;;;6251106;28;94228;-74
2022/11/15 12:14:27;;;;;;;8.25;7.55;;;22.80;79.10;;;;;;6250339;28;94430;-73
2022/11/15 12:17:32;;;;;;;7.40;6.80;;;22.70;81.10;;;;;;6251084;28;94737;-74
2022/11/15 12:20:39;;;;;;;7.55;6.78;;;22.70;82.70;;;;;;6251787;28;93556;-74
2022/11/15 12:23:49;;;;;;;7.38;6.70;;;22.70;84.10;;;;;;6250596;27;94237;-72
2022/11/15 12:26:55;;;;;;;6.90;6.30;;;22.60;85.90;;;;;;6240292;28;93400;-73
2022/11/15 12:30:02;;;;;;;6.40;5.90;;;22.60;86.10;;;;;;6238886;28;95200;-73
2022/11/15 12:33:04;;;;;;;6.97;5.55;;;22.60;87.00;;;;;;6245570;28;93820;-74
2022/11/15 12:36:10;;;;;;;5.80;5.30;;;22.60;87.70;;;;;;6249266;28;94291;-72
2022/11/15 12:39:14;;;;;;;5.88;5.38;;;22.60;88.30;;;;;;6251246;28;94154;-73
2022/11/15 12:42:40;;;;;;;5.63;5.05;;;22.60;89.00;;;;;;6250033;28;94174;-73
2022/11/15 12:45:44;;;;;;;5.72;5.22;;;22.60;89.70;;;;;;6248481;28;94213;-73
2022/11/15 12:48:57;;;;;;;5.50;5.00;;;22.60;90.00;;;;;;6250358;28;94201;-73
2022/11/15 12:52:09;;;;;;;5.95;5.35;;;22.60;90.30;;;;;;6249761;28;92256;-73
2022/11/15 12:55:33;;;;;;;5.35;4.85;;;22.60;90.50;;;;;;6237069;27;94383;-73
2022/11/15 12:58:43;;;;;;;5.07;4.65;;;22.60;90.80;;;;;;6250521;28;95408;-73
2022/11/15 13:02:19;;;;;;;5.07;4.68;;;22.60;91.00;;;;;;6249262;28;95182;-72
2022/11/15 13:05:53;;;;;;;5.07;4.63;;;22.60;91.10;;;;;;6249669;27;94474;-73
2022/11/15 13:08:55;;;;;;;5.43;4.93;;;22.60;91.40;;;;;;6233168;28;94583;-73
2022/11/15 13:12:01;;;;;;;4.80;4.40;;;22.60;91.50;;;;;;6254733;28;94180;-74
2022/11/15 13:15:50;;;;;;;4.90;4.50;;;22.60;91.60;;;;;;6254924;28;94351;-73
2022/11/15 13:19:04;;;;;;;5.35;4.85;;;22.60;91.70;;;;;;6253873;28;94104;-73
2022/11/15 13:25:55;;;;;;;4.97;4.50;;;22.60;92.00;;;;;;6263093;27;91537;-73
2022/11/15 13:28:58;;;;;;;4.93;4.53;;;22.60;92.10;;;;;;6253540;28;94129;-73
2022/11/15 13:32:01;;;;;;;5.65;4.50;;;22.60;92.20;;;;;;6254159;28;94129;-73
2022/11/15 13:35:08;;;;;;;4.97;4.50;;;22.60;92.30;;;;;;6253799;28;95234;-73
2022/11/15 13:38:20;;;;;;;5.35;4.85;;;22.60;92.40;;;;;;6253971;28;94317;-73
2022/11/15 13:41:24;;;;;;;4.65;4.25;;;22.60;92.50;;;;;;6254706;28;94543;-73
2022/11/15 13:44:28;;;;;;;4.90;4.50;;;22.60;92.60;;;;;;6253813;28;94600;-71
2022/11/15 13:47:31;;;;;;;5.00;4.50;;;22.70;92.70;;;;;;6252127;28;96000;-74
2022/11/15 13:50:39;;;;;;;4.63;4.22;;;22.70;92.80;;;;;;6254463;28;94523;-73
2022/11/15 13:53:47;;;;;;;4.18;3.88;;;22.60;92.80;;;;;;6251026;27;94333;-73
2022/11/15 13:56:55;;;;;;;4.60;4.20;;;22.70;92.90;;;;;;6254091;28;93337;-73
2022/11/15 14:00:02;;;;;;;4.70;4.30;;;22.70;92.90;;;;;;6253662;28;94056;-73
2022/11/15 14:03:14;;;;;;;4.47;4.07;;;22.70;93.00;;;;;;6255400;28;94046;-73
2022/11/15 14:06:19;;;;;;;4.80;4.40;;;22.60;93.00;;;;;;6252790;27;95041;-73
2022/11/15 14:09:32;;;;;;;5.25;4.75;;;22.70;93.10;;;;;;6252993;28;94175;-73
2022/11/15 14:12:36;;;;;;;5.63;4.82;;;22.60;93.20;;;;;;6253580;28;93267;-74
2022/11/15 14:15:40;;;;;;;4.95;4.55;;;22.70;93.20;;;;;;6252351;28;94394;-72
2022/11/15 14:18:44;;;;;;;4.47;4.07;;;22.70;93.30;;;;;;6254200;28;94470;-72
2022/11/15 14:22:10;;;;;;;4.22;3.92;;;22.60;93.30;;;;;;6252113;27;94122;-73
2022/11/15 14:25:19;;;;;;;4.40;4.00;;;22.70;93.40;;;;;;6256065;27;93092;-73
2022/11/15 14:28:32;;;;;;;4.63;4.22;;;22.70;93.40;;;;;;6246323;28;93722;-72
2022/11/15 14:31:34;;;;;;;4.75;4.32;;;22.70;93.50;;;;;;6243713;28;94202;-73
2022/11/15 14:34:36;;;;;;;4.80;4.40;;;22.70;93.50;;;;;;6253171;28;94403;-73
2022/11/15 14:37:40;;;;;;;4.75;4.35;;;22.70;93.50;;;;;;6250892;28;94739;-73
2022/11/15 14:40:42;;;;;;;4.47;4.07;;;22.70;93.50;;;;;;6253005;28;94187;-71
2022/11/15 14:43:44;;;;;;;4.53;4.13;;;22.70;93.50;;;;;;6252599;28;94217;-73
2022/11/15 14:46:47;;;;;;;4.72;4.32;;;22.70;93.60;;;;;;6251095;28;94539;-73
2022/11/15 14:49:50;;;;;;;4.75;4.35;;;22.70;93.60;;;;;;6252168;28;93904;-73
2022/11/15 14:52:53;;;;;;;4.78;4.22;;;22.70;93.60;;;;;;6251831;27;94328;-73
2022/11/15 14:55:55;;;;;;;4.55;4.15;;;22.70;93.70;;;;;;6254365;28;94589;-73
2022/11/15 14:58:58;;;;;;;4.78;4.38;;;22.70;93.70;;;;;;6253489;28;93484;-73
2022/11/15 15:02:00;;;;;;;4.43;4.05;;;22.70;93.80;;;;;;6252475;28;94060;-73
2022/11/15 15:05:03;;;;;;;4.20;3.80;;;22.70;93.80;;;;;;6251820;28;94643;-74
2022/11/15 15:08:07;;;;;;;4.43;4.00;;;22.70;93.80;;;;;;6252537;28;95232;-73
2022/11/15 15:11:14;;;;;;;4.40;4.00;;;22.60;93.90;;;;;;6252988;27;94221;-74
2022/11/15 15:14:16;;;;;;;4.72;4.32;;;22.70;93.90;;;;;;6251089;27;94070;-74
2022/11/15 15:17:18;;;;;;;5.18;4.50;;;22.70;93.90;;;;;;6250837;27;94250;-75
2022/11/15 15:20:20;;;;;;;5.90;4.38;;;22.70;93.90;;;;;;6251783;27;94650;-75
2022/11/15 15:23:25;;;;;;;4.47;4.07;;;22.70;95.50;;;;;;6253108;28;95911;-74
2022/11/15 15:26:27;;;;;;;4.95;4.50;;;22.70;94.60;;;;;;6264366;27;94747;-75
2022/11/15 15:29:29;;;;;;;4.90;4.50;;;22.70;94.60;;;;;;6252983;28;93671;-74
2022/11/15 15:32:31;;;;;;;4.40;4.00;;;22.70;94.60;;;;;;6251872;28;94519;-74
2022/11/15 15:35:35;;;;;;;4.35;4.03;;;22.70;94.50;;;;;;6249841;27;93250;-75
2022/11/15 15:38:39;;;;;;;4.50;4.10;;;22.70;94.60;;;;;;6250805;28;95209;-74
2022/11/15 15:41:41;;;;;;;4.40;3.97;;;22.70;94.60;;;;;;6250700;28;94174;-76
2022/11/15 15:44:43;;;;;;;4.53;4.13;;;22.70;94.60;;;;;;6249780;27;94132;-75
2022/11/15 15:47:46;;;;;;;4.38;3.97;;;22.70;94.70;;;;;;6250917;28;94161;-73
2022/11/15 15:50:49;;;;;;;5.60;4.32;;;22.70;94.70;;;;;;6249833;28;94435;-75
2022/11/15 15:53:56;;;;;;;4.40;4.00;;;22.70;94.70;;;;;;6251172;28;94257;-73
2022/11/15 15:56:58;;;;;;;4.35;3.95;;;22.70;94.70;;;;;;6251676;28;92874;-74
2022/11/15 16:00:00;;;;;;;6.22;4.32;;;22.80;94.80;;;;;;6251525;28;93934;-73
2022/11/15 16:03:02;;;;;;;4.53;4.13;;;22.70;94.70;;;;;;6247756;28;93474;-73
2022/11/15 16:06:05;;;;;;;5.15;4.10;;;22.70;94.70;;;;;;6249250;28;94330;-74
2022/11/15 16:09:11;;;;;;;5.13;4.13;;;22.70;94.60;;;;;;6248434;28;95182;-73
2022/11/15 16:12:14;;;;;;;5.07;4.45;;;22.70;94.60;;;;;;6248627;28;93353;-75
2022/11/15 16:15:16;;;;;;;4.85;4.10;;;22.80;95.00;;;;;;6248457;28;93828;-74
2022/11/15 16:18:19;;;;;;;4.60;4.00;;;22.80;95.00;;;;;;6249596;28;94468;-74
2022/11/15 16:21:21;;;;;;;4.47;4.03;;;22.70;94.60;;;;;;6248877;28;93182;-72
2022/11/15 16:24:25;;;;;;;5.82;4.00;;;22.70;94.60;;;;;;6254477;27;94266;-73